Tropical Cyclones
[Index]
Season 2020-2021 Tropical Cyclone ODETTE Track Map
Season 2020-2021 Summaries (Operational Data): [AU] [SIO] [SPAC] [SH]
<<- Previous TC | 2020-2021 Season | Next TC ->>

click for intensity scale information  Lat/long Grid: Show Hide

 Date Labels: Show Hide

Operational Tropical Cyclone Data

Name: ODETTE
Number: 2127

31 Mar 2012 18:00 UTC to 10 Apr 2012 12:00 UTC

    date/time    lat    long     hPa   cat  kts
2012-03-31 18    7.0   101.9    1006         15          
2012-04-01 00    7.5   102.1    1006         15          
2012-04-01 06    7.8   102.3    1005         20          
2012-04-01 12    8.1   102.4    1005         20          
2012-04-01 18    8.5   102.7    1007         20          
2012-04-02 00    8.9   103.0    1007         20          
2012-04-02 06    9.2   103.2    1004         20          
2012-04-02 12    9.6   103.2    1004         20          
2012-04-02 18   10.0   103.0    1004         20          
2012-04-03 00   10.4   102.7    1004         20          
2012-04-03 06   10.7   102.7    1003         20          
2012-04-03 12   10.8   102.9    1003         20          
2012-04-03 18   11.5   103.8    1003         20          
2012-04-04 00   12.7   104.8    1003         20          
2012-04-04 06   13.6   105.0    1001         25          
2012-04-04 12   14.2   104.9    1003         25          
2012-04-04 18   14.7   104.8    1000         30          
2012-04-05 00   15.2   104.9     998         30          
2012-04-05 06   15.6   104.9     999    1    35          
2012-04-05 12   15.9   105.2    1000    1    35          
2012-04-05 18   16.2   105.4     999    1    35          
2012-04-06 00   16.3   105.6     999    1    35          
2012-04-06 06   16.1   105.8     997    1    35          
2012-04-06 12   16.2   106.0     997         30          
2012-04-06 18   16.4   105.9     998         30          
2012-04-07 00   16.4   105.7     996    1    35          
2012-04-07 06   16.2   105.8     995    1    35          
2012-04-07 12   16.4   105.9     996    1    35          
2012-04-07 18   16.2   106.0     994    1    35          
2012-04-08 00   16.0   106.2     993    1    35          
2012-04-08 06   15.4   105.4     999         30          
2012-04-08 12   14.8   105.7     999         30          
2012-04-08 18   14.2   107.5     992    1    40          
2012-04-09 00   14.2   107.5     990    1    45          
2012-04-09 06   14.9   109.2     990    1    45          
2012-04-09 12   15.6   110.8     995    1    35          
2012-04-09 18   17.1   112.2     994    1    35          
2012-04-10 00   18.9   112.8     999         30          
2012-04-10 06   21.3   113.0    1000         25          
2012-04-10 12   24.0   112.1     999         25          
Winds were reported as (or converted to) 10-min average.

Tropical cyclone tracks developed by Michael Bath using operational warnings and advisories and Google Maps.


Document: tropical_cyclone_odette.htm
Updated: 7 May 2021
[Australian Severe Weather index] [Copyright Notice] [Email Contacts] [Search This Site] [Privacy Policy]


Main Index Home Page Stock Weather Photos Extreme Storms Discussion Storm News and Storm Chasing Reports Tropical Cyclones / Hurricanes / Typhoons Weather Data and Links Wild Fires / Bushfires Weather Observation Techniques Weather Picture Catalogue Tornado Pictures and Reports Stock Video Footage and DVDs for sale